Terminal Aerodrome Forecast
Issued by NWS

Home | Current Version | Previous Version | Graphics & Text | Print | Product List | Glossary On
Versions: 1 2 3 4 5 6 7 8 9 10 11 12 13 14
000
FTUS43 KICT 231138
TAFHUT
TAF
KHUT 231138Z 2312/2412 08011KT P6SM SCT100 BKN250
     FM231900 12012KT P6SM SCT100 SCT250
     FM232100 17013G18KT P6SM SCT100 SCT250
     FM240000 21011KT P6SM SKC
     FM240300 33018G25KT P6SM SCT015 BKN025=

USA.gov is the U.S. government's official web portal to all federal, state and local government web resources and services.